createdAt,value
2022-12-29T00:01:15.258Z,90.30
2022-12-29T00:03:43.819Z,90.30
2022-12-29T00:06:12.246Z,90.20
2022-12-29T00:08:43.397Z,90.00
2022-12-29T00:11:14.004Z,90.00
2022-12-29T00:14:02.005Z,89.80
2022-12-29T00:16:31.561Z,89.70
2022-12-29T00:19:00.367Z,89.40
2022-12-29T00:21:47.199Z,89.20
2022-12-29T00:24:36.008Z,89.00
2022-12-29T00:27:31.662Z,89.00
2022-12-29T00:30:18.977Z,89.00
2022-12-29T00:33:04.662Z,88.90
2022-12-29T00:35:38.347Z,89.20
2022-12-29T00:38:27.036Z,89.60
2022-12-29T00:41:12.542Z,89.90
2022-12-29T00:43:58.254Z,90.20
2022-12-29T00:46:27.879Z,90.20
2022-12-29T00:49:13.546Z,90.30
2022-12-29T00:51:42.215Z,90.30
2022-12-29T00:54:10.922Z,90.30
2022-12-29T00:56:39.315Z,90.20
2022-12-29T00:59:11.324Z,90.10
2022-12-29T01:01:41.818Z,90.00
2022-12-29T01:04:12.701Z,89.80
2022-12-29T01:06:42.866Z,89.60
2022-12-29T01:09:30.342Z,89.30
2022-12-29T01:11:58.669Z,88.90
2022-12-29T01:14:26.968Z,88.50
2022-12-29T01:16:57.788Z,88.20
2022-12-29T01:19:27.118Z,87.80
2022-12-29T01:21:55.645Z,87.60
2022-12-29T01:24:25.258Z,87.10
2022-12-29T01:26:55.384Z,86.70
2022-12-29T01:29:24.162Z,86.70
2022-12-29T01:31:52.473Z,86.50
2022-12-29T01:34:22.118Z,86.30
2022-12-29T01:36:50.334Z,86.00
2022-12-29T01:39:18.531Z,86.00
2022-12-29T01:41:46.778Z,85.80
2022-12-29T01:44:57.200Z,85.70
2022-12-29T01:47:34.794Z,85.60
2022-12-29T01:50:09.982Z,85.20
2022-12-29T01:52:43.649Z,85.00
2022-12-29T01:55:13.389Z,85.00
2022-12-29T01:57:47.337Z,84.20
2022-12-29T02:00:17.995Z,84.40
2022-12-29T02:02:50.382Z,84.30
2022-12-29T02:05:28.230Z,84.30
2022-12-29T02:07:57.124Z,84.50
2022-12-29T02:10:29.871Z,84.30
2022-12-29T02:12:58.846Z,83.90
2022-12-29T02:15:38.419Z,83.80
2022-12-29T02:18:27.828Z,83.40
2022-12-29T02:21:55.427Z,83.30
2022-12-29T02:25:17.238Z,82.90
2022-12-29T02:28:21.563Z,82.80
2022-12-29T02:31:06.906Z,82.90
2022-12-29T02:33:50.730Z,82.70
2022-12-29T02:36:29.740Z,83.20
2022-12-29T02:39:07.141Z,83.20
2022-12-29T02:41:42.993Z,83.30
2022-12-29T02:44:17.757Z,84.00
2022-12-29T02:46:54.747Z,84.70
2022-12-29T02:49:35.563Z,84.70
2022-12-29T02:52:08.847Z,85.00
2022-12-29T02:54:43.668Z,85.30
2022-12-29T02:57:16.542Z,85.40
2022-12-29T02:59:47.348Z,85.50
2022-12-29T03:02:39.985Z,85.50
2022-12-29T03:05:50.416Z,86.10
2022-12-29T03:08:31.558Z,86.90
2022-12-29T03:11:02.904Z,87.30
2022-12-29T03:13:55.031Z,87.50
2022-12-29T03:16:27.193Z,87.60
2022-12-29T03:19:03.816Z,87.40
2022-12-29T03:21:56.061Z,87.30
2022-12-29T03:24:29.955Z,87.10
2022-12-29T03:27:01.787Z,86.80
2022-12-29T03:29:32.162Z,86.60
2022-12-29T03:32:02.290Z,87.00
2022-12-29T03:34:33.024Z,87.10
2022-12-29T03:37:07.712Z,87.20
2022-12-29T03:39:36.107Z,87.30
2022-12-29T03:42:08.293Z,87.40
2022-12-29T03:44:40.209Z,87.20
2022-12-29T03:47:09.537Z,87.00
2022-12-29T03:49:39.365Z,86.90
2022-12-29T03:52:07.795Z,87.10
2022-12-29T03:54:36.137Z,87.80
2022-12-29T03:57:04.328Z,88.40
2022-12-29T03:59:32.610Z,88.90
2022-12-29T04:02:00.969Z,89.30
2022-12-29T04:04:29.612Z,89.70
2022-12-29T04:06:59.204Z,90.10
2022-12-29T04:09:27.465Z,90.30
2022-12-29T04:11:56.167Z,90.50
2022-12-29T04:14:24.492Z,90.40
2022-12-29T04:16:52.865Z,90.40
2022-12-29T04:19:21.114Z,90.90
2022-12-29T04:21:49.339Z,91.60
2022-12-29T04:24:18.977Z,92.00
2022-12-29T04:26:47.459Z,92.50
2022-12-29T04:29:15.897Z,93.10
2022-12-29T04:31:44.495Z,93.90
2022-12-29T04:34:13.397Z,94.30
2022-12-29T04:36:41.813Z,94.70
2022-12-29T04:39:10.455Z,94.90
2022-12-29T04:41:40.180Z,95.00
2022-12-29T04:44:08.672Z,95.20
2022-12-29T04:46:37.049Z,95.30
2022-12-29T04:49:09.517Z,95.40
2022-12-29T04:51:38.345Z,95.50
2022-12-29T04:54:06.833Z,95.50
2022-12-29T04:56:35.530Z,95.60
2022-12-29T04:59:05.244Z,95.60
2022-12-29T05:01:33.769Z,95.70
2022-12-29T05:04:02.389Z,95.70
2022-12-29T05:06:30.685Z,95.70
2022-12-29T05:08:59.085Z,95.80
2022-12-29T05:11:27.513Z,95.80
2022-12-29T05:13:56.127Z,95.80
2022-12-29T05:16:25.962Z,95.80
2022-12-29T05:18:54.382Z,95.80
2022-12-29T05:21:23.105Z,95.80
2022-12-29T05:23:51.860Z,95.70
2022-12-29T05:26:20.486Z,95.40
2022-12-29T05:28:49.090Z,95.10
2022-12-29T05:31:17.569Z,94.80
2022-12-29T05:33:48.362Z,94.50
2022-12-29T05:36:16.704Z,94.40
2022-12-29T05:38:47.163Z,94.20
2022-12-29T05:41:15.370Z,94.00
2022-12-29T05:43:43.638Z,94.10
2022-12-29T05:46:12.089Z,94.30
2022-12-29T05:48:40.362Z,94.40
2022-12-29T05:51:10.316Z,94.40
2022-12-29T05:53:38.667Z,94.30
2022-12-29T05:56:07.929Z,94.40
2022-12-29T05:58:36.188Z,94.60
2022-12-29T06:01:04.433Z,94.60
2022-12-29T06:03:32.910Z,94.70
2022-12-29T06:06:01.738Z,94.50
2022-12-29T06:08:31.480Z,94.60
2022-12-29T06:10:59.688Z,94.40
2022-12-29T06:13:29.188Z,94.40
2022-12-29T06:15:57.392Z,94.50
2022-12-29T06:18:25.633Z,94.40
2022-12-29T06:20:53.896Z,94.30
2022-12-29T06:23:22.352Z,94.30
2022-12-29T06:25:52.133Z,94.30
2022-12-29T06:28:20.835Z,94.10
2022-12-29T06:30:50.171Z,94.10
2022-12-29T06:33:18.503Z,94.10
2022-12-29T06:35:47.421Z,94.10
2022-12-29T06:38:15.831Z,94.10
2022-12-29T06:40:46.387Z,94.10
2022-12-29T06:43:16.453Z,94.20
2022-12-29T06:45:45.484Z,94.30
2022-12-29T06:48:13.886Z,94.40
2022-12-29T06:50:42.654Z,94.20
2022-12-29T06:53:11.471Z,94.10
2022-12-29T06:55:39.827Z,93.80
2022-12-29T06:58:08.362Z,93.70
2022-12-29T07:00:38.143Z,93.80
2022-12-29T07:03:06.489Z,93.80
2022-12-29T07:05:35.208Z,93.50
2022-12-29T07:08:03.950Z,93.60
2022-12-29T07:10:32.175Z,93.00
2022-12-29T07:13:00.723Z,93.10
2022-12-29T07:15:29.424Z,93.00
2022-12-29T07:17:59.459Z,92.80
2022-12-29T07:20:27.936Z,91.90
2022-12-29T07:22:56.548Z,91.90
2022-12-29T07:25:25.347Z,91.60
2022-12-29T07:27:53.699Z,91.60
2022-12-29T07:30:21.916Z,91.00
2022-12-29T07:32:50.243Z,90.80
2022-12-29T07:35:19.949Z,90.70
2022-12-29T07:37:48.245Z,90.60
2022-12-29T07:40:16.653Z,90.80
2022-12-29T07:42:44.982Z,90.20
2022-12-29T07:45:13.364Z,89.80
2022-12-29T07:47:41.625Z,89.90
2022-12-29T07:50:10.323Z,89.50
2022-12-29T07:52:40.368Z,89.50
2022-12-29T07:55:10.251Z,89.60
2022-12-29T07:57:38.658Z,89.60
2022-12-29T08:00:08.495Z,90.10
2022-12-29T08:02:36.843Z,89.00
2022-12-29T08:05:06.226Z,89.00
2022-12-29T08:07:34.496Z,89.30
2022-12-29T08:10:04.812Z,89.60
2022-12-29T08:12:33.164Z,90.10
2022-12-29T08:15:01.407Z,90.00
2022-12-29T08:17:29.971Z,89.50
2022-12-29T08:19:59.104Z,89.80
2022-12-29T08:22:27.514Z,89.70
2022-12-29T08:24:56.136Z,89.70
2022-12-29T08:27:25.784Z,90.00
2022-12-29T08:29:54.107Z,89.50
2022-12-29T08:32:22.299Z,89.00
2022-12-29T08:34:50.608Z,89.40
2022-12-29T08:37:18.800Z,88.10
2022-12-29T08:39:47.187Z,88.00
2022-12-29T08:42:15.491Z,87.50
2022-12-29T08:44:45.069Z,85.60
2022-12-29T08:47:13.818Z,85.30
2022-12-29T08:49:42.046Z,86.20
2022-12-29T08:52:10.548Z,87.10
2022-12-29T08:54:39.229Z,86.40
2022-12-29T08:57:07.621Z,87.00
2022-12-29T08:59:35.804Z,86.70
2022-12-29T09:02:05.827Z,86.60
2022-12-29T09:04:34.441Z,86.90
2022-12-29T09:07:02.799Z,86.90
2022-12-29T09:09:31.085Z,87.60
2022-12-29T09:11:59.486Z,85.90
2022-12-29T09:14:27.725Z,85.20
2022-12-29T09:17:14.759Z,84.70
2022-12-29T09:19:44.384Z,84.50
2022-12-29T09:22:12.639Z,85.30
2022-12-29T09:24:40.918Z,84.40
2022-12-29T09:27:09.164Z,83.80
2022-12-29T09:29:37.346Z,83.70
2022-12-29T09:32:07.974Z,83.30
2022-12-29T09:34:36.890Z,83.60
2022-12-29T09:37:06.531Z,83.00
2022-12-29T09:39:34.755Z,82.80
2022-12-29T09:42:09.744Z,82.30
2022-12-29T09:44:56.832Z,82.10
2022-12-29T09:47:27.484Z,81.70
2022-12-29T09:50:00.941Z,81.60
2022-12-29T09:52:34.581Z,81.10
2022-12-29T09:55:11.975Z,80.90
2022-12-29T09:57:48.163Z,81.20
2022-12-29T10:00:20.327Z,80.50
2022-12-29T10:02:54.337Z,80.60
2022-12-29T10:05:39.849Z,81.00
2022-12-29T10:08:32.117Z,80.50
2022-12-29T10:11:17.008Z,79.70
2022-12-29T10:14:16.080Z,79.70
2022-12-29T10:16:55.757Z,80.60
2022-12-29T10:19:55.772Z,79.10
2022-12-29T10:22:44.210Z,79.40
2022-12-29T10:25:21.570Z,79.10
2022-12-29T10:27:52.122Z,78.90
2022-12-29T10:30:20.846Z,78.50
2022-12-29T10:32:55.258Z,77.00
2022-12-29T10:35:26.106Z,78.40
2022-12-29T10:38:01.626Z,77.80
2022-12-29T10:40:38.696Z,77.50
2022-12-29T10:43:25.106Z,78.20
2022-12-29T10:45:55.675Z,78.40
2022-12-29T10:48:31.836Z,78.70
2022-12-29T10:51:04.276Z,79.00
2022-12-29T10:53:41.013Z,77.90
2022-12-29T10:56:24.214Z,78.40
2022-12-29T10:58:54.085Z,77.60
2022-12-29T11:01:22.636Z,77.80
2022-12-29T11:04:02.871Z,78.10
2022-12-29T11:06:31.530Z,77.30
2022-12-29T11:09:04.254Z,76.00
2022-12-29T11:11:38.592Z,77.60
2022-12-29T11:14:16.204Z,76.40
2022-12-29T11:16:46.138Z,76.60
2022-12-29T11:19:25.629Z,77.30
2022-12-29T11:21:54.822Z,77.90
2022-12-29T11:24:26.571Z,77.10
2022-12-29T11:26:58.707Z,77.20
2022-12-29T11:29:29.524Z,77.10
2022-12-29T11:32:00.588Z,77.50
2022-12-29T11:34:33.741Z,77.40
2022-12-29T11:37:07.412Z,76.90
2022-12-29T11:39:43.836Z,77.20
2022-12-29T11:42:19.707Z,78.20
2022-12-29T11:44:50.584Z,76.60
2022-12-29T11:47:31.644Z,76.80
2022-12-29T11:50:03.232Z,76.80
2022-12-29T11:52:37.225Z,77.00
2022-12-29T11:55:09.531Z,76.70
2022-12-29T11:57:39.282Z,77.30
2022-12-29T12:00:19.276Z,77.10
2022-12-29T12:02:57.847Z,77.00
2022-12-29T12:05:38.649Z,77.50
2022-12-29T12:08:20.445Z,77.00
2022-12-29T12:10:55.506Z,76.40
2022-12-29T12:13:32.693Z,77.10
2022-12-29T12:16:07.411Z,76.90
2022-12-29T12:18:43.967Z,76.90
2022-12-29T12:21:21.751Z,76.30
2022-12-29T12:24:31.247Z,77.10
2022-12-29T12:27:05.515Z,77.00
2022-12-29T12:29:48.886Z,76.90
2022-12-29T12:32:23.022Z,76.60
2022-12-29T12:34:52.648Z,76.80
2022-12-29T12:37:47.364Z,76.40
2022-12-29T12:40:47.928Z,76.30
2022-12-29T12:43:39.592Z,76.60
2022-12-29T12:46:42.705Z,77.50
2022-12-29T12:49:42.577Z,78.20
2022-12-29T12:52:22.959Z,79.20
2022-12-29T12:55:13.178Z,79.00
2022-12-29T12:57:54.206Z,79.40
2022-12-29T13:00:24.431Z,78.90
2022-12-29T13:03:08.084Z,79.20
2022-12-29T13:06:14.375Z,79.40
2022-12-29T13:09:05.662Z,79.10
2022-12-29T13:11:50.685Z,79.50
2022-12-29T13:14:35.563Z,79.20
2022-12-29T13:17:15.923Z,79.30
2022-12-29T13:19:55.753Z,79.70
2022-12-29T13:22:32.901Z,79.90
2022-12-29T13:25:25.810Z,80.20
2022-12-29T13:28:02.545Z,80.70
2022-12-29T13:30:36.738Z,80.80
2022-12-29T13:33:20.969Z,81.10
2022-12-29T13:36:02.514Z,82.30
2022-12-29T13:38:38.446Z,82.40
2022-12-29T13:41:11.267Z,83.10
2022-12-29T13:43:42.898Z,82.60
2022-12-29T13:46:18.684Z,83.00
2022-12-29T13:48:52.988Z,82.80
2022-12-29T13:51:28.208Z,82.30
2022-12-29T13:54:12.183Z,81.20
2022-12-29T13:56:43.736Z,81.20
2022-12-29T13:59:26.062Z,81.50
2022-12-29T14:02:02.585Z,80.30
2022-12-29T14:04:34.175Z,80.00
2022-12-29T14:07:07.585Z,80.20
2022-12-29T14:09:50.029Z,79.40
2022-12-29T14:12:34.541Z,79.10
2022-12-29T14:15:16.393Z,79.50
2022-12-29T14:17:45.821Z,79.10
2022-12-29T14:20:23.736Z,79.10
2022-12-29T14:23:02.201Z,77.90
2022-12-29T14:26:12.587Z,78.50
2022-12-29T14:28:43.828Z,77.90
2022-12-29T14:31:42.179Z,77.20
2022-12-29T14:34:32.825Z,77.40
2022-12-29T14:37:02.617Z,77.80
2022-12-29T14:39:39.951Z,77.70
2022-12-29T14:42:15.068Z,77.40
2022-12-29T14:44:52.403Z,78.10
2022-12-29T14:47:25.025Z,77.50
2022-12-29T14:49:54.561Z,78.40
2022-12-29T14:52:26.910Z,78.30
2022-12-29T14:55:01.312Z,79.00
2022-12-29T14:57:39.625Z,78.90
2022-12-29T15:00:18.480Z,79.40
2022-12-29T15:02:52.852Z,79.80
2022-12-29T15:05:37.504Z,79.00
2022-12-29T15:08:08.188Z,79.00
2022-12-29T15:10:49.082Z,78.80
2022-12-29T15:13:23.684Z,78.20
2022-12-29T15:15:51.983Z,78.80
2022-12-29T15:18:27.935Z,78.00
2022-12-29T15:20:59.327Z,77.70
2022-12-29T15:23:28.301Z,77.90
2022-12-29T15:26:00.175Z,78.00
2022-12-29T15:28:29.520Z,78.40
2022-12-29T15:31:04.899Z,77.90
2022-12-29T15:33:33.268Z,77.80
2022-12-29T15:36:08.105Z,77.80
2022-12-29T15:38:40.409Z,78.00
2022-12-29T15:41:27.751Z,78.00
2022-12-29T15:44:09.451Z,77.90
2022-12-29T15:46:38.549Z,78.40
2022-12-29T15:49:09.196Z,78.70
2022-12-29T15:51:40.784Z,79.00
2022-12-29T15:54:18.046Z,79.40
2022-12-29T15:56:48.423Z,79.80
2022-12-29T15:59:28.854Z,80.50
2022-12-29T16:01:57.902Z,81.50
2022-12-29T16:04:29.000Z,82.30
2022-12-29T16:07:00.404Z,82.30
2022-12-29T16:09:35.966Z,82.50
2022-12-29T16:12:09.241Z,82.90
2022-12-29T16:14:49.847Z,83.50
2022-12-29T16:17:24.038Z,84.90
2022-12-29T16:19:55.445Z,85.90
2022-12-29T16:22:30.624Z,87.30
2022-12-29T16:25:05.189Z,88.00
2022-12-29T16:27:45.495Z,89.00
2022-12-29T16:30:26.542Z,89.40
2022-12-29T16:33:01.887Z,90.00
2022-12-29T16:35:32.131Z,90.20
2022-12-29T16:38:18.494Z,90.80
2022-12-29T16:40:54.604Z,90.80
2022-12-29T16:43:27.060Z,91.20
2022-12-29T16:46:28.608Z,91.40
2022-12-29T16:48:58.633Z,91.60
2022-12-29T16:51:33.173Z,91.70
2022-12-29T16:54:02.568Z,91.90
2022-12-29T16:56:34.301Z,91.30
2022-12-29T16:59:08.725Z,91.20
2022-12-29T17:01:39.385Z,91.20
2022-12-29T17:04:11.264Z,91.40
2022-12-29T17:06:40.030Z,91.60
2022-12-29T17:09:20.593Z,91.40
2022-12-29T17:12:02.489Z,91.60
2022-12-29T17:14:44.777Z,91.70
2022-12-29T17:17:18.906Z,91.70
2022-12-29T17:19:51.363Z,91.70
2022-12-29T17:22:25.205Z,91.90
2022-12-29T17:24:54.258Z,92.00
2022-12-29T17:27:33.728Z,91.80
2022-12-29T17:30:07.919Z,91.70
2022-12-29T17:32:36.168Z,91.90
2022-12-29T17:35:05.721Z,92.00
2022-12-29T17:37:38.947Z,91.90
2022-12-29T17:40:12.084Z,91.80
2022-12-29T17:42:44.349Z,92.00
2022-12-29T17:45:19.024Z,92.10
2022-12-29T17:47:47.745Z,92.00
2022-12-29T17:50:18.283Z,92.00
2022-12-29T17:52:51.519Z,91.80
2022-12-29T17:55:23.472Z,91.90
2022-12-29T17:57:52.894Z,91.90
2022-12-29T18:00:27.727Z,92.00
2022-12-29T18:02:57.111Z,92.10
2022-12-29T18:05:27.629Z,92.10
2022-12-29T18:07:58.337Z,92.00
2022-12-29T18:10:29.359Z,91.90
2022-12-29T18:13:00.792Z,91.80
2022-12-29T18:15:31.700Z,91.90
2022-12-29T18:18:03.145Z,91.60
2022-12-29T18:20:34.507Z,91.90
2022-12-29T18:23:02.999Z,92.00
2022-12-29T18:25:41.488Z,91.90
2022-12-29T18:28:09.891Z,92.00
2022-12-29T18:30:39.886Z,91.80
2022-12-29T18:33:08.164Z,91.50
2022-12-29T18:35:41.949Z,91.40
2022-12-29T18:38:11.717Z,91.30
2022-12-29T18:40:42.221Z,91.50
2022-12-29T18:43:13.815Z,91.20
2022-12-29T18:45:46.265Z,90.90
2022-12-29T18:48:14.896Z,90.90
2022-12-29T18:50:44.102Z,90.80
2022-12-29T18:53:18.552Z,90.90
2022-12-29T18:55:47.591Z,90.50
2022-12-29T18:58:16.291Z,90.30
2022-12-29T19:00:47.241Z,90.50
2022-12-29T19:03:16.680Z,89.90
2022-12-29T19:05:47.395Z,89.90
2022-12-29T19:08:15.972Z,89.50
2022-12-29T19:10:45.910Z,89.20
2022-12-29T19:13:19.035Z,89.10
2022-12-29T19:15:49.035Z,89.20
2022-12-29T19:21:09.727Z,89.10
2022-12-29T19:23:37.997Z,88.90
2022-12-29T19:26:06.792Z,89.30
2022-12-29T19:28:35.273Z,89.40
2022-12-29T19:31:05.028Z,89.30
2022-12-29T19:33:33.310Z,88.60
2022-12-29T19:36:03.430Z,88.60
2022-12-29T19:38:31.972Z,88.50
2022-12-29T19:41:00.375Z,88.40
2022-12-29T19:43:28.649Z,88.40
2022-12-29T19:45:56.962Z,88.00
2022-12-29T19:48:26.929Z,88.40
2022-12-29T19:50:55.264Z,88.40
2022-12-29T19:53:23.544Z,88.70
2022-12-29T19:55:51.915Z,88.10
2022-12-29T19:58:20.804Z,88.00
2022-12-29T20:00:49.987Z,88.10
2022-12-29T20:03:19.408Z,88.00
2022-12-29T20:05:51.943Z,88.40
2022-12-29T20:08:20.368Z,88.20
2022-12-29T20:10:59.774Z,88.00
2022-12-29T20:13:28.388Z,88.30
2022-12-29T20:16:01.664Z,87.90
2022-12-29T20:18:30.637Z,87.80
2022-12-29T20:21:05.893Z,87.80
2022-12-29T20:23:35.703Z,87.30
2022-12-29T20:26:05.595Z,87.60
2022-12-29T20:28:34.073Z,87.90
2022-12-29T20:31:06.443Z,87.60
2022-12-29T20:33:37.335Z,87.30
2022-12-29T20:36:09.707Z,87.40
2022-12-29T20:38:38.493Z,87.80
2022-12-29T20:41:07.092Z,87.80
2022-12-29T20:43:35.587Z,87.20
2022-12-29T20:46:04.408Z,87.50
2022-12-29T20:48:33.272Z,87.30
2022-12-29T20:51:01.766Z,87.10
2022-12-29T20:53:34.524Z,87.00
2022-12-29T20:56:05.931Z,86.90
2022-12-29T20:58:47.184Z,87.20
2022-12-29T21:01:26.877Z,86.90
2022-12-29T21:03:55.292Z,87.00
2022-12-29T21:06:23.630Z,87.50
2022-12-29T21:08:55.066Z,87.30
2022-12-29T21:11:24.551Z,87.10
2022-12-29T21:13:53.161Z,87.30
2022-12-29T21:16:22.322Z,87.00
2022-12-29T21:18:51.668Z,87.00
2022-12-29T21:21:22.546Z,86.80
2022-12-29T21:23:52.869Z,86.80
2022-12-29T21:26:24.264Z,87.00
2022-12-29T21:28:53.147Z,86.90
2022-12-29T21:31:29.810Z,86.80
2022-12-29T21:33:59.325Z,86.60
2022-12-29T21:36:28.543Z,86.30
2022-12-29T21:39:00.149Z,86.90
2022-12-29T21:41:28.691Z,86.60
2022-12-29T21:44:14.724Z,87.00
2022-12-29T21:46:44.170Z,86.70
2022-12-29T21:49:12.793Z,87.00
2022-12-29T21:51:54.145Z,86.90
2022-12-29T21:54:43.752Z,86.80
2022-12-29T21:57:34.544Z,87.60
2022-12-29T22:00:21.405Z,87.40
2022-12-29T22:03:07.746Z,87.30
2022-12-29T22:05:53.741Z,87.20
2022-12-29T22:08:39.561Z,87.50
2022-12-29T22:11:27.929Z,87.10
2022-12-29T22:13:58.118Z,87.10
2022-12-29T22:16:27.954Z,87.20
2022-12-29T22:18:56.323Z,87.70
2022-12-29T22:21:24.657Z,87.70
2022-12-29T22:23:52.902Z,87.80
2022-12-29T22:26:22.649Z,88.10
2022-12-29T22:28:52.433Z,87.80
2022-12-29T22:31:29.017Z,87.70
2022-12-29T22:34:03.427Z,87.30
2022-12-29T22:36:33.462Z,87.10
2022-12-29T22:39:01.926Z,87.40
2022-12-29T22:41:31.546Z,87.50
2022-12-29T22:43:59.787Z,87.90
2022-12-29T22:46:28.177Z,87.70
2022-12-29T22:48:58.374Z,87.60
2022-12-29T22:51:26.753Z,87.60
2022-12-29T22:53:55.164Z,87.60
2022-12-29T22:56:23.419Z,87.60
2022-12-29T22:58:54.426Z,87.60
2022-12-29T23:01:23.246Z,87.80
2022-12-29T23:03:52.000Z,87.80
2022-12-29T23:06:20.433Z,87.50
2022-12-29T23:08:48.645Z,87.50
2022-12-29T23:11:17.395Z,87.30
2022-12-29T23:13:46.155Z,87.50
2022-12-29T23:16:17.197Z,87.60
2022-12-29T23:18:46.865Z,87.30
2022-12-29T23:21:15.498Z,87.70
2022-12-29T23:23:57.244Z,87.90
2022-12-29T23:26:28.410Z,87.70
2022-12-29T23:29:00.515Z,88.20
2022-12-29T23:31:32.523Z,87.80
2022-12-29T23:34:01.867Z,87.80
2022-12-29T23:36:31.200Z,87.90
2022-12-29T23:39:00.092Z,88.20
2022-12-29T23:41:29.065Z,88.20
2022-12-29T23:43:57.476Z,87.90
2022-12-29T23:46:29.964Z,87.60
2022-12-29T23:48:58.659Z,87.70
2022-12-29T23:51:28.037Z,87.90
2022-12-29T23:53:57.516Z,87.60
2022-12-29T23:56:25.785Z,87.70
2022-12-29T23:58:54.412Z,87.80
